createdAt,value
2022-12-23T00:00:28.749Z,96.70
2022-12-23T00:02:55.610Z,96.40
2022-12-23T00:05:22.525Z,96.30
2022-12-23T00:07:49.165Z,96.00
2022-12-23T00:10:15.843Z,96.30
2022-12-23T00:13:01.306Z,96.30
2022-12-23T00:15:28.001Z,96.40
2022-12-23T00:17:54.683Z,96.20
2022-12-23T00:20:21.344Z,96.90
2022-12-23T00:23:06.429Z,96.50
2022-12-23T00:25:42.489Z,96.60
2022-12-23T00:28:11.370Z,96.50
2022-12-23T00:30:38.096Z,97.30
2022-12-23T00:33:04.755Z,97.00
2022-12-23T00:35:32.229Z,96.70
2022-12-23T00:37:58.826Z,97.00
2022-12-23T00:40:44.407Z,97.30
2022-12-23T00:43:11.132Z,97.00
2022-12-23T00:45:37.942Z,97.20
2022-12-23T00:48:23.384Z,97.30
2022-12-23T00:50:50.092Z,97.10
2022-12-23T00:53:16.740Z,96.90
2022-12-23T00:55:43.498Z,97.30
2022-12-23T00:58:10.153Z,98.10
2022-12-23T01:00:55.682Z,96.60
2022-12-23T01:03:41.286Z,96.80
2022-12-23T01:06:07.977Z,96.60
2022-12-23T01:08:34.679Z,96.90
2022-12-23T01:11:01.349Z,96.30
2022-12-23T01:13:28.113Z,97.30
2022-12-23T01:15:54.860Z,96.80
2022-12-23T01:18:21.651Z,96.80
2022-12-23T01:20:48.386Z,96.60
2022-12-23T01:23:15.156Z,97.00
2022-12-23T01:25:41.828Z,97.40
2022-12-23T01:28:08.601Z,96.80
2022-12-23T01:30:35.277Z,97.30
2022-12-23T01:33:02.085Z,96.70
2022-12-23T01:35:28.815Z,97.40
2022-12-23T01:37:55.447Z,96.70
2022-12-23T01:40:22.140Z,97.10
2022-12-23T01:42:48.757Z,96.80
2022-12-23T01:45:15.422Z,96.90
2022-12-23T01:47:42.205Z,97.50
2022-12-23T01:50:08.861Z,97.50
2022-12-23T01:52:35.467Z,96.60
2022-12-23T01:55:02.137Z,97.10
2022-12-23T01:57:28.800Z,96.60
2022-12-23T02:00:14.268Z,96.60
2022-12-23T02:02:59.623Z,97.00
2022-12-23T02:05:26.369Z,97.70
2022-12-23T02:08:11.852Z,97.70
2022-12-23T02:10:38.523Z,97.40
2022-12-23T02:13:05.167Z,98.00
2022-12-23T02:15:50.801Z,96.80
2022-12-23T02:18:17.701Z,97.80
2022-12-23T02:20:47.437Z,97.60
2022-12-23T02:23:14.199Z,97.10
2022-12-23T02:25:40.922Z,97.10
2022-12-23T02:28:07.600Z,97.10
2022-12-23T02:30:34.325Z,97.70
2022-12-23T02:33:00.945Z,97.30
2022-12-23T02:35:27.542Z,97.80
2022-12-23T02:37:54.201Z,97.50
2022-12-23T02:40:20.874Z,97.00
2022-12-23T02:42:47.500Z,97.20
2022-12-23T02:45:14.158Z,97.50
2022-12-23T02:47:40.766Z,97.40
2022-12-23T02:50:07.510Z,97.30
2022-12-23T02:52:34.162Z,97.40
2022-12-23T02:55:00.803Z,97.40
2022-12-23T02:57:27.690Z,97.60
2022-12-23T02:59:54.391Z,97.80
2022-12-23T03:02:21.161Z,97.90
2022-12-23T03:04:48.001Z,98.00
2022-12-23T03:07:18.432Z,98.10
2022-12-23T03:09:45.468Z,98.30
2022-12-23T03:12:12.072Z,98.30
2022-12-23T03:14:38.713Z,99.40
2022-12-23T03:17:05.386Z,99.60
2022-12-23T03:19:35.107Z,98.90
2022-12-23T03:22:01.785Z,98.90
2022-12-23T03:24:28.396Z,98.80
2022-12-23T03:26:55.075Z,98.20
2022-12-23T03:29:21.679Z,98.00
2022-12-23T03:31:48.304Z,98.10
2022-12-23T03:34:14.960Z,98.20
2022-12-23T03:36:41.601Z,98.90
2022-12-23T03:39:08.386Z,98.10
2022-12-23T03:41:34.982Z,98.20
2022-12-23T03:44:01.620Z,98.20
2022-12-23T03:46:28.291Z,97.90
2022-12-23T03:48:54.927Z,98.10
2022-12-23T03:51:21.574Z,98.10
2022-12-23T03:53:48.211Z,98.10
2022-12-23T03:56:14.867Z,98.20
2022-12-23T03:58:41.475Z,97.90
2022-12-23T04:01:08.115Z,97.90
2022-12-23T04:03:34.765Z,98.00
2022-12-23T04:06:01.432Z,98.00
2022-12-23T04:08:28.033Z,98.90
2022-12-23T04:10:54.687Z,98.20
2022-12-23T04:13:21.343Z,98.60
2022-12-23T04:15:48.057Z,97.70
2022-12-23T04:18:16.347Z,97.60
2022-12-23T04:20:43.029Z,97.80
2022-12-23T04:23:09.628Z,97.60
2022-12-23T04:25:36.254Z,97.00
2022-12-23T04:28:02.875Z,98.10
2022-12-23T04:30:33.905Z,97.30
2022-12-23T04:33:01.470Z,97.30
2022-12-23T04:35:28.232Z,98.10
2022-12-23T04:37:54.859Z,97.30
2022-12-23T04:40:21.562Z,97.40
2022-12-23T04:42:48.233Z,97.10
2022-12-23T04:45:15.160Z,96.80
2022-12-23T04:47:41.851Z,97.20
2022-12-23T04:50:08.535Z,96.70
2022-12-23T04:52:35.210Z,96.80
2022-12-23T04:55:01.833Z,97.70
2022-12-23T04:57:28.430Z,97.10
2022-12-23T04:59:55.118Z,97.10
2022-12-23T05:02:21.892Z,97.40
2022-12-23T05:04:48.529Z,97.40
2022-12-23T05:07:15.213Z,97.40
2022-12-23T05:09:41.847Z,97.30
2022-12-23T05:12:08.461Z,97.90
2022-12-23T05:14:35.195Z,97.80
2022-12-23T05:17:07.179Z,97.90
2022-12-23T05:19:34.484Z,98.00
2022-12-23T05:22:01.197Z,98.40
2022-12-23T05:24:27.849Z,98.20
2022-12-23T05:26:59.723Z,97.90
2022-12-23T05:29:26.896Z,98.20
2022-12-23T05:31:53.560Z,98.20
2022-12-23T05:34:20.267Z,98.90
2022-12-23T05:36:46.905Z,99.00
2022-12-23T05:39:13.559Z,98.20
2022-12-23T05:41:40.182Z,99.00
2022-12-23T05:44:06.821Z,98.60
2022-12-23T05:46:33.528Z,98.40
2022-12-23T05:49:00.287Z,98.30
2022-12-23T05:51:26.936Z,99.60
2022-12-23T05:53:53.490Z,98.60
2022-12-23T05:56:20.113Z,98.30
2022-12-23T05:58:46.785Z,98.30
2022-12-23T06:01:14.190Z,98.60
2022-12-23T06:03:40.890Z,98.70
2022-12-23T06:06:07.629Z,98.70
2022-12-23T06:08:34.240Z,98.90
2022-12-23T06:11:00.976Z,99.30
2022-12-23T06:13:27.616Z,99.00
2022-12-23T06:15:54.309Z,99.20
2022-12-23T06:18:20.968Z,99.30
2022-12-23T06:20:47.773Z,99.40
2022-12-23T06:23:14.403Z,99.60
2022-12-23T06:25:41.010Z,99.70
2022-12-23T06:28:08.094Z,99.90
2022-12-23T06:30:34.741Z,99.90
2022-12-23T06:33:01.354Z,99.90
2022-12-23T06:35:27.962Z,99.90
2022-12-23T06:37:54.620Z,99.90
2022-12-23T06:40:21.323Z,99.90
2022-12-23T06:42:47.980Z,99.90
2022-12-23T06:45:14.606Z,99.90
2022-12-23T06:47:41.220Z,99.90
2022-12-23T06:50:07.805Z,99.90
2022-12-23T06:52:34.476Z,99.90
2022-12-23T06:55:01.209Z,99.90
2022-12-23T06:57:27.823Z,99.90
2022-12-23T06:59:54.472Z,99.90
2022-12-23T07:02:21.290Z,99.90
2022-12-23T07:04:48.126Z,99.90
2022-12-23T07:07:14.755Z,99.90
2022-12-23T07:09:41.421Z,99.90
2022-12-23T07:12:08.085Z,99.90
2022-12-23T07:14:34.731Z,99.90
2022-12-23T07:17:01.470Z,99.90
2022-12-23T07:19:28.061Z,99.90
2022-12-23T07:21:54.786Z,99.90
2022-12-23T07:24:21.444Z,99.90
2022-12-23T07:26:48.096Z,99.90
2022-12-23T07:29:14.819Z,99.90
2022-12-23T07:31:41.619Z,99.90
2022-12-23T07:34:08.301Z,99.90
2022-12-23T07:36:34.904Z,99.90
2022-12-23T07:39:01.494Z,99.90
2022-12-23T07:41:28.250Z,99.90
2022-12-23T07:43:55.009Z,99.90
2022-12-23T07:46:21.764Z,99.90
2022-12-23T07:48:48.513Z,99.90
2022-12-23T07:51:15.183Z,99.90
2022-12-23T07:53:41.740Z,99.90
2022-12-23T07:56:08.329Z,99.90
2022-12-23T07:58:34.983Z,99.90
2022-12-23T08:01:01.742Z,99.90
2022-12-23T08:03:28.377Z,99.90
2022-12-23T08:05:54.992Z,99.90
2022-12-23T08:08:21.616Z,99.90
2022-12-23T08:10:48.824Z,99.90
2022-12-23T08:13:15.556Z,99.90
2022-12-23T08:15:42.396Z,99.90
2022-12-23T08:18:09.146Z,99.90
2022-12-23T08:20:35.807Z,99.90
2022-12-23T08:23:02.384Z,99.90
2022-12-23T08:25:29.023Z,99.90
2022-12-23T08:27:55.711Z,99.90
2022-12-23T08:30:22.504Z,99.90
2022-12-23T08:32:49.128Z,99.90
2022-12-23T08:35:15.707Z,99.90
2022-12-23T08:37:42.301Z,99.90
2022-12-23T08:40:08.942Z,99.90
2022-12-23T08:42:35.542Z,99.90
2022-12-23T08:45:02.375Z,99.90
2022-12-23T08:47:28.968Z,99.90
2022-12-23T08:49:55.664Z,99.90
2022-12-23T08:52:22.314Z,99.90
2022-12-23T08:54:48.987Z,99.90
2022-12-23T08:57:15.747Z,99.90
2022-12-23T08:59:42.379Z,99.90
2022-12-23T09:02:09.165Z,99.90
2022-12-23T09:04:35.958Z,99.90
2022-12-23T09:07:03.456Z,99.90
2022-12-23T09:09:33.237Z,99.90
2022-12-23T09:12:00.144Z,99.90
2022-12-23T09:14:27.109Z,99.90
2022-12-23T09:16:53.729Z,99.90
2022-12-23T09:19:20.509Z,99.90
2022-12-23T09:21:47.143Z,99.90
2022-12-23T09:24:13.749Z,99.90
2022-12-23T09:26:41.604Z,99.90
2022-12-23T09:29:08.209Z,99.90
2022-12-23T09:31:37.599Z,99.90
2022-12-23T09:34:04.778Z,99.90
2022-12-23T09:36:31.498Z,99.90
2022-12-23T09:38:58.176Z,99.90
2022-12-23T09:41:24.798Z,99.90
2022-12-23T09:43:51.506Z,99.90
2022-12-23T09:46:18.347Z,99.90
2022-12-23T09:48:46.184Z,99.90
2022-12-23T09:51:12.801Z,99.90
2022-12-23T09:53:39.443Z,99.90
2022-12-23T09:56:06.011Z,99.90
2022-12-23T09:58:33.094Z,99.90
2022-12-23T10:01:00.096Z,99.90
2022-12-23T10:03:27.242Z,99.90
2022-12-23T10:05:56.390Z,99.90
2022-12-23T10:08:23.057Z,99.90
2022-12-23T10:10:49.705Z,99.90
2022-12-23T10:13:16.371Z,99.90
2022-12-23T10:15:43.007Z,99.90
2022-12-23T10:18:09.835Z,99.90
2022-12-23T10:20:37.313Z,99.90
2022-12-23T10:23:03.993Z,99.90
2022-12-23T10:25:30.605Z,99.90
2022-12-23T10:27:57.248Z,99.90
2022-12-23T10:33:10.428Z,99.90
2022-12-23T10:35:36.987Z,99.90
2022-12-23T10:38:03.621Z,99.90
2022-12-23T10:40:30.554Z,99.90
2022-12-23T10:42:57.189Z,99.90
2022-12-23T10:45:23.795Z,99.90
2022-12-23T10:47:50.488Z,99.90
2022-12-23T10:50:17.131Z,99.90
2022-12-23T10:52:46.321Z,99.90
2022-12-23T10:55:12.916Z,99.90
2022-12-23T10:57:39.661Z,99.90
2022-12-23T11:00:06.838Z,99.90
2022-12-23T11:02:33.755Z,99.90
2022-12-23T11:05:00.941Z,99.90
2022-12-23T11:07:43.992Z,99.90
2022-12-23T11:10:11.890Z,99.90
2022-12-23T11:12:42.034Z,99.90
2022-12-23T11:15:09.023Z,99.90
2022-12-23T11:17:35.972Z,99.90
2022-12-23T11:20:03.478Z,99.90
2022-12-23T11:22:30.065Z,99.90
2022-12-23T11:24:56.644Z,99.90
2022-12-23T11:27:23.604Z,99.90
2022-12-23T11:29:50.433Z,99.90
2022-12-23T11:32:17.286Z,99.90
2022-12-23T11:34:44.355Z,99.90
2022-12-23T11:37:11.261Z,99.90
2022-12-23T11:39:37.971Z,99.90
2022-12-23T11:42:04.845Z,99.90
2022-12-23T11:44:31.481Z,99.90
2022-12-23T11:46:58.124Z,99.90
2022-12-23T11:49:24.912Z,99.90
2022-12-23T11:51:51.966Z,99.90
2022-12-23T11:54:18.794Z,99.90
2022-12-23T11:56:45.724Z,99.90
2022-12-23T11:59:12.865Z,99.90
2022-12-23T12:01:40.243Z,99.90
2022-12-23T12:04:07.803Z,99.90
2022-12-23T12:06:34.901Z,99.90
2022-12-23T12:09:01.650Z,99.90
2022-12-23T12:11:28.500Z,99.90
2022-12-23T12:13:55.244Z,99.90
2022-12-23T12:16:22.189Z,99.90
2022-12-23T12:18:55.184Z,99.90
2022-12-23T12:21:22.616Z,99.90
2022-12-23T12:23:50.755Z,99.90
2022-12-23T12:26:25.829Z,99.90
2022-12-23T12:28:56.604Z,99.90
2022-12-23T12:31:23.642Z,99.90
2022-12-23T12:33:50.482Z,99.90
2022-12-23T12:36:17.243Z,99.90
2022-12-23T12:38:44.194Z,99.90
2022-12-23T12:41:11.001Z,99.90
2022-12-23T12:43:37.894Z,99.90
2022-12-23T12:46:04.985Z,99.90
2022-12-23T12:48:31.961Z,99.90
2022-12-23T12:50:58.563Z,99.90
2022-12-23T12:53:25.246Z,99.90
2022-12-23T12:55:51.939Z,99.90
2022-12-23T12:58:19.697Z,99.90
2022-12-23T13:00:46.282Z,99.00
2022-12-23T13:03:13.102Z,99.10
2022-12-23T13:05:40.163Z,99.40
2022-12-23T13:08:07.322Z,98.60
2022-12-23T13:10:34.313Z,98.40
2022-12-23T13:13:01.317Z,98.10
2022-12-23T13:15:28.345Z,97.60
2022-12-23T13:17:58.912Z,97.30
2022-12-23T13:20:29.004Z,97.60
2022-12-23T13:23:02.673Z,98.20
2022-12-23T13:25:42.319Z,96.40
2022-12-23T13:28:09.414Z,96.20
2022-12-23T13:30:36.352Z,95.90
2022-12-23T13:33:05.438Z,97.30
2022-12-23T13:35:33.996Z,96.40
2022-12-23T13:38:04.779Z,95.50
2022-12-23T13:40:32.020Z,95.90
2022-12-23T13:42:59.263Z,94.90
2022-12-23T13:45:26.545Z,95.90
2022-12-23T13:47:59.768Z,95.40
2022-12-23T13:50:31.673Z,95.70
2022-12-23T13:52:58.774Z,95.10
2022-12-23T13:55:25.773Z,96.00
2022-12-23T13:57:52.893Z,96.50
2022-12-23T14:00:22.944Z,96.50
2022-12-23T14:02:49.887Z,96.50
2022-12-23T14:05:17.084Z,96.20
2022-12-23T14:07:44.172Z,95.40
2022-12-23T14:10:11.277Z,96.20
2022-12-23T14:12:38.340Z,96.30
2022-12-23T14:15:05.634Z,95.40
2022-12-23T14:17:32.736Z,94.80
2022-12-23T14:20:03.113Z,95.60
2022-12-23T14:22:30.131Z,95.00
2022-12-23T14:24:57.205Z,95.00
2022-12-23T14:27:24.662Z,95.20
2022-12-23T14:29:51.879Z,95.00
2022-12-23T14:32:19.576Z,95.30
2022-12-23T14:34:46.621Z,96.10
2022-12-23T14:37:13.656Z,96.10
2022-12-23T14:39:40.676Z,96.60
2022-12-23T14:42:12.079Z,97.30
2022-12-23T14:44:42.267Z,98.10
2022-12-23T14:47:09.619Z,97.90
2022-12-23T14:49:39.877Z,97.80
2022-12-23T14:52:08.061Z,97.80
2022-12-23T14:54:35.308Z,98.00
2022-12-23T14:57:02.537Z,97.90
2022-12-23T14:59:29.901Z,97.70
2022-12-23T15:01:57.347Z,98.20
2022-12-23T15:04:39.121Z,98.00
2022-12-23T15:07:06.615Z,98.30
2022-12-23T15:09:37.204Z,98.30
2022-12-23T15:12:04.324Z,98.50
2022-12-23T15:14:31.479Z,98.80
2022-12-23T15:16:58.185Z,99.20
2022-12-23T15:19:28.354Z,99.60
2022-12-23T15:22:07.698Z,99.90
2022-12-23T15:24:40.563Z,99.90
2022-12-23T15:27:26.695Z,99.90
2022-12-23T15:29:55.164Z,99.60
2022-12-23T15:32:22.410Z,99.30
2022-12-23T15:34:49.707Z,98.50
2022-12-23T15:37:19.436Z,98.70
2022-12-23T15:39:47.651Z,98.50
2022-12-23T15:42:16.905Z,99.30
2022-12-23T15:44:44.187Z,98.90
2022-12-23T15:47:14.351Z,98.70
2022-12-23T15:49:41.425Z,98.80
2022-12-23T15:52:18.184Z,98.10
2022-12-23T15:54:49.605Z,98.00
2022-12-23T15:57:16.764Z,97.40
2022-12-23T15:59:44.090Z,97.80
2022-12-23T16:02:40.353Z,97.30
2022-12-23T16:05:00.778Z,97.30
2022-12-23T16:07:28.192Z,97.30
2022-12-23T16:09:55.636Z,97.20
2022-12-23T16:12:23.065Z,97.30
2022-12-23T16:14:53.261Z,97.30
2022-12-23T16:17:20.055Z,96.80
2022-12-23T16:19:46.941Z,96.70
2022-12-23T16:22:13.846Z,96.90
2022-12-23T16:24:50.428Z,97.20
2022-12-23T16:30:04.093Z,96.30
2022-12-23T16:32:31.879Z,96.60
2022-12-23T16:35:04.800Z,96.80
2022-12-23T16:37:32.427Z,96.70
2022-12-23T16:39:59.720Z,96.80
2022-12-23T16:42:26.848Z,97.00
2022-12-23T16:44:54.612Z,96.20
2022-12-23T16:47:21.846Z,95.90
2022-12-23T16:49:48.856Z,95.70
2022-12-23T16:52:16.815Z,95.40
2022-12-23T16:54:43.887Z,95.80
2022-12-23T16:57:11.080Z,95.60
2022-12-23T16:59:44.326Z,95.50
2022-12-23T17:02:11.624Z,95.70
2022-12-23T17:04:38.769Z,95.50
2022-12-23T17:07:05.900Z,95.50
2022-12-23T17:09:33.220Z,95.10
2022-12-23T17:12:00.327Z,95.20
2022-12-23T17:14:27.873Z,94.60
2022-12-23T17:16:55.530Z,95.10
2022-12-23T17:19:28.697Z,94.50
2022-12-23T17:21:56.781Z,94.70
2022-12-23T17:24:24.040Z,95.10
2022-12-23T17:26:51.316Z,94.80
2022-12-23T17:29:18.716Z,94.10
2022-12-23T17:31:46.002Z,93.60
2022-12-23T17:34:13.278Z,94.20
2022-12-23T17:36:46.055Z,94.70
2022-12-23T17:39:16.604Z,94.40
2022-12-23T17:41:46.212Z,94.50
2022-12-23T17:44:13.449Z,94.10
2022-12-23T17:46:40.680Z,94.10
2022-12-23T17:49:09.185Z,94.60
2022-12-23T17:51:36.444Z,95.00
2022-12-23T17:54:04.977Z,94.30
2022-12-23T17:56:32.322Z,93.30
2022-12-23T17:58:59.597Z,94.40
2022-12-23T18:01:26.692Z,94.00
2022-12-23T18:03:54.005Z,94.00
2022-12-23T18:06:21.258Z,94.40
2022-12-23T18:08:48.335Z,94.10
2022-12-23T18:11:15.510Z,94.80
2022-12-23T18:13:42.531Z,94.20
2022-12-23T18:16:10.072Z,94.10
2022-12-23T18:18:45.846Z,94.30
2022-12-23T18:21:13.921Z,93.50
2022-12-23T18:23:40.961Z,94.20
2022-12-23T18:26:08.080Z,93.90
2022-12-23T18:28:35.300Z,93.80
2022-12-23T18:31:02.539Z,94.30
2022-12-23T18:33:30.703Z,94.20
2022-12-23T18:35:58.062Z,94.60
2022-12-23T18:38:25.253Z,94.40
2022-12-23T18:40:54.615Z,94.70
2022-12-23T18:43:22.167Z,94.60
2022-12-23T18:45:53.248Z,94.20
2022-12-23T18:48:21.958Z,94.20
2022-12-23T18:50:49.209Z,95.00
2022-12-23T18:53:23.694Z,95.60
2022-12-23T18:55:51.359Z,94.60
2022-12-23T18:58:18.553Z,94.90
2022-12-23T19:00:46.396Z,95.00
2022-12-23T19:03:16.475Z,95.00
2022-12-23T19:05:43.822Z,95.20
2022-12-23T19:08:11.124Z,95.20
2022-12-23T19:10:38.497Z,95.10
2022-12-23T19:13:05.680Z,95.80
2022-12-23T19:15:32.884Z,95.60
2022-12-23T19:18:00.125Z,95.20
2022-12-23T19:20:27.407Z,95.10
2022-12-23T19:22:54.751Z,95.50
2022-12-23T19:25:22.207Z,95.60
2022-12-23T19:27:49.373Z,95.40
2022-12-23T19:30:17.100Z,95.20
2022-12-23T19:32:44.382Z,95.10
2022-12-23T19:35:12.406Z,95.60
2022-12-23T19:37:39.532Z,95.20
2022-12-23T19:40:09.737Z,95.20
2022-12-23T19:42:36.966Z,95.50
2022-12-23T19:45:07.129Z,95.20
2022-12-23T19:47:34.359Z,95.40
2022-12-23T19:50:01.679Z,96.00
2022-12-23T19:52:29.015Z,95.60
2022-12-23T19:54:56.244Z,96.00
2022-12-23T19:57:23.264Z,95.80
2022-12-23T19:59:50.454Z,96.20
2022-12-23T20:02:17.950Z,95.80
2022-12-23T20:04:46.958Z,95.30
2022-12-23T20:07:14.106Z,95.50
2022-12-23T20:09:41.295Z,96.20
2022-12-23T20:12:08.752Z,95.60
2022-12-23T20:14:35.795Z,96.20
2022-12-23T20:17:03.029Z,95.70
2022-12-23T20:19:30.329Z,95.50
2022-12-23T20:21:57.538Z,95.60
2022-12-23T20:24:24.868Z,95.70
2022-12-23T20:26:52.021Z,95.70
2022-12-23T20:29:19.017Z,95.80
2022-12-23T20:31:46.398Z,96.20
2022-12-23T20:34:13.634Z,96.10
2022-12-23T20:36:40.812Z,96.70
2022-12-23T20:39:08.075Z,96.20
2022-12-23T20:41:35.451Z,96.40
2022-12-23T20:44:33.318Z,96.60
2022-12-23T20:46:50.123Z,97.10
2022-12-23T20:49:17.375Z,96.80
2022-12-23T20:51:44.519Z,96.90
2022-12-23T20:54:11.703Z,97.10
2022-12-23T20:56:38.828Z,97.40
2022-12-23T20:59:06.069Z,97.70
2022-12-23T21:01:33.411Z,98.00
2022-12-23T21:04:00.664Z,98.20
2022-12-23T21:06:28.038Z,98.40
2022-12-23T21:08:56.579Z,98.80
2022-12-23T21:11:24.035Z,99.00
2022-12-23T21:13:54.810Z,99.20
2022-12-23T21:16:31.285Z,99.50
2022-12-23T21:18:58.721Z,99.80
2022-12-23T21:21:28.713Z,99.90
2022-12-23T21:23:58.471Z,99.90
2022-12-23T21:26:25.943Z,99.90
2022-12-23T21:28:53.222Z,99.90
2022-12-23T21:31:23.010Z,99.90
2022-12-23T21:33:52.638Z,99.90
2022-12-23T21:36:20.917Z,99.90
2022-12-23T21:38:48.037Z,99.90
2022-12-23T21:41:15.336Z,99.90
2022-12-23T21:43:45.582Z,99.90
2022-12-23T21:46:12.773Z,99.90
2022-12-23T21:48:40.037Z,99.90
2022-12-23T21:51:09.788Z,99.90
2022-12-23T21:53:36.966Z,99.90
2022-12-23T21:56:04.138Z,99.90
2022-12-23T21:58:31.287Z,99.90
2022-12-23T22:00:58.544Z,99.90
2022-12-23T22:03:25.711Z,99.90
2022-12-23T22:05:52.921Z,99.90
2022-12-23T22:08:20.244Z,99.90
2022-12-23T22:10:48.027Z,99.90
2022-12-23T22:13:15.236Z,99.90
2022-12-23T22:15:42.427Z,99.90
2022-12-23T22:18:09.742Z,99.90
2022-12-23T22:20:39.800Z,99.90
2022-12-23T22:23:11.494Z,99.90
2022-12-23T22:25:38.452Z,99.90
2022-12-23T22:28:05.581Z,99.90
2022-12-23T22:30:32.636Z,99.90
2022-12-23T22:32:59.697Z,99.90
2022-12-23T22:35:30.009Z,99.90
2022-12-23T22:37:58.469Z,99.90
2022-12-23T22:40:25.511Z,99.90
2022-12-23T22:42:52.585Z,99.80
2022-12-23T22:45:19.812Z,99.80
2022-12-23T22:47:47.121Z,99.90
2022-12-23T22:50:14.318Z,99.90
2022-12-23T22:52:41.519Z,99.90
2022-12-23T22:55:08.821Z,99.90
2022-12-23T22:57:35.923Z,99.90
2022-12-23T23:00:09.621Z,99.70
2022-12-23T23:02:39.350Z,99.90
2022-12-23T23:05:12.418Z,99.80
2022-12-23T23:07:39.836Z,99.70
2022-12-23T23:10:07.383Z,99.90
2022-12-23T23:12:34.806Z,99.70
2022-12-23T23:15:01.948Z,99.90
2022-12-23T23:17:28.818Z,99.70
2022-12-23T23:19:58.703Z,99.60
2022-12-23T23:22:25.940Z,99.70
2022-12-23T23:24:53.151Z,99.60
2022-12-23T23:27:20.214Z,99.40
2022-12-23T23:29:47.195Z,99.60
2022-12-23T23:32:14.353Z,99.40
2022-12-23T23:34:42.682Z,99.20
2022-12-23T23:37:09.437Z,99.00
2022-12-23T23:39:36.380Z,99.10
2022-12-23T23:42:03.545Z,99.70
2022-12-23T23:44:30.515Z,99.10
2022-12-23T23:46:57.677Z,99.40
2022-12-23T23:49:24.704Z,99.00
2022-12-23T23:51:51.764Z,99.00
2022-12-23T23:54:18.862Z,99.10
2022-12-23T23:56:45.841Z,98.60
2022-12-23T23:59:12.857Z,99.30
